sensor_id;sensor_type;location;lat;lon;timestamp;P1;durP1;ratioP1;P2;durP2;ratioP2
25667;SDS011;18003;-33.830;151.202;2023-11-21T00:38:54;5.08;;;4.62;;
25667;SDS011;18003;-33.830;151.202;2023-11-21T00:41:25;4.20;;;3.80;;
25667;SDS011;18003;-33.830;151.202;2023-11-21T00:43:55;4.17;;;3.87;;
25667;SDS011;18003;-33.830;151.202;2023-11-21T00:46:29;4.00;;;3.70;;
25667;SDS011;18003;-33.830;151.202;2023-11-21T00:48:58;3.87;;;3.67;;
25667;SDS011;18003;-33.830;151.202;2023-11-21T00:51:29;3.62;;;3.33;;
25667;SDS011;18003;-33.830;151.202;2023-11-21T02:03:38;1.80;;;1.80;;
25667;SDS011;18003;-33.830;151.202;2023-11-21T02:06:08;2.00;;;1.90;;
25667;SDS011;18003;-33.830;151.202;2023-11-21T02:08:38;2.30;;;2.20;;
25667;SDS011;18003;-33.830;151.202;2023-11-21T02:11:11;2.10;;;2.00;;
25667;SDS011;18003;-33.830;151.202;2023-11-21T02:13:41;1.90;;;1.90;;
25667;SDS011;18003;-33.830;151.202;2023-11-21T02:16:15;2.20;;;2.10;;
25667;SDS011;18003;-33.830;151.202;2023-11-21T02:18:50;2.00;;;1.80;;
25667;SDS011;18003;-33.830;151.202;2023-11-21T02:21:20;2.30;;;2.20;;
25667;SDS011;18003;-33.830;151.202;2023-11-21T02:23:51;2.50;;;2.40;;
25667;SDS011;18003;-33.830;151.202;2023-11-21T02:26:21;2.27;;;2.17;;
25667;SDS011;18003;-33.830;151.202;2023-11-21T02:28:52;2.50;;;2.40;;
25667;SDS011;18003;-33.830;151.202;2023-11-21T02:34:11;2.10;;;2.00;;
25667;SDS011;18003;-33.830;151.202;2023-11-21T02:36:36;2.40;;;2.27;;
25667;SDS011;18003;-33.830;151.202;2023-11-21T02:39:12;2.50;;;2.40;;
25667;SDS011;18003;-33.830;151.202;2023-11-21T02:41:50;2.30;;;2.10;;
25667;SDS011;18003;-33.830;151.202;2023-11-21T02:44:12;2.65;;;2.55;;
25667;SDS011;18003;-33.830;151.202;2023-11-21T02:46:47;2.55;;;2.37;;
25667;SDS011;18003;-33.830;151.202;2023-11-21T02:52:03;3.08;;;2.87;;
25667;SDS011;18003;-33.830;151.202;2023-11-21T02:54:36;3.05;;;2.85;;
25667;SDS011;18003;-33.830;151.202;2023-11-21T02:57:07;2.80;;;2.60;;
25667;SDS011;18003;-33.830;151.202;2023-11-21T02:59:53;4.47;;;2.52;;
25667;SDS011;18003;-33.830;151.202;2023-11-21T03:02:27;2.90;;;2.70;;
25667;SDS011;18003;-33.830;151.202;2023-11-21T03:07:34;3.20;;;2.90;;
25667;SDS011;18003;-33.830;151.202;2023-11-21T03:10:10;3.08;;;2.87;;
25667;SDS011;18003;-33.830;151.202;2023-11-21T03:12:41;3.85;;;2.90;;
25667;SDS011;18003;-33.830;151.202;2023-11-21T03:15:18;3.02;;;2.80;;
25667;SDS011;18003;-33.830;151.202;2023-11-21T03:17:48;2.90;;;2.70;;
25667;SDS011;18003;-33.830;151.202;2023-11-21T03:20:18;3.30;;;3.00;;
25667;SDS011;18003;-33.830;151.202;2023-11-21T03:22:55;4.55;;;3.02;;
25667;SDS011;18003;-33.830;151.202;2023-11-21T03:25:25;2.98;;;2.70;;
25667;SDS011;18003;-33.830;151.202;2023-11-21T03:28:08;4.03;;;3.25;;
25667;SDS011;18003;-33.830;151.202;2023-11-21T03:30:38;4.83;;;3.35;;
25667;SDS011;18003;-33.830;151.202;2023-11-21T03:33:08;5.65;;;3.20;;
25667;SDS011;18003;-33.830;151.202;2023-11-21T03:35:38;4.80;;;2.93;;
25667;SDS011;18003;-33.830;151.202;2023-11-21T03:38:26;2.98;;;2.70;;
25667;SDS011;18003;-33.830;151.202;2023-11-21T03:41:01;2.90;;;2.70;;
25667;SDS011;18003;-33.830;151.202;2023-11-21T03:43:36;3.00;;;2.80;;
25667;SDS011;18003;-33.830;151.202;2023-11-21T03:48:39;3.00;;;2.58;;
25667;SDS011;18003;-33.830;151.202;2023-11-21T03:51:09;2.80;;;2.35;;
25667;SDS011;18003;-33.830;151.202;2023-11-21T03:53:39;2.60;;;2.40;;
25667;SDS011;18003;-33.830;151.202;2023-11-21T03:56:09;2.83;;;2.70;;
25667;SDS011;18003;-33.830;151.202;2023-11-21T04:43:18;2.70;;;2.50;;
25667;SDS011;18003;-33.830;151.202;2023-11-21T04:45:48;4.42;;;2.80;;
25667;SDS011;18003;-33.830;151.202;2023-11-21T04:48:18;2.50;;;2.30;;
25667;SDS011;18003;-33.830;151.202;2023-11-21T04:50:55;3.65;;;2.70;;
25667;SDS011;18003;-33.830;151.202;2023-11-21T04:53:25;2.60;;;2.40;;
25667;SDS011;18003;-33.830;151.202;2023-11-21T04:55:55;3.00;;;2.40;;
25667;SDS011;18003;-33.830;151.202;2023-11-21T04:58:24;5.05;;;2.45;;
25667;SDS011;18003;-33.830;151.202;2023-11-21T05:00:55;2.60;;;2.40;;
25667;SDS011;18003;-33.830;151.202;2023-11-21T05:03:26;3.02;;;2.27;;
25667;SDS011;18003;-33.830;151.202;2023-11-21T05:05:56;2.30;;;2.20;;
25667;SDS011;18003;-33.830;151.202;2023-11-21T05:08:28;2.75;;;2.52;;
25667;SDS011;18003;-33.830;151.202;2023-11-21T05:10:58;2.27;;;2.10;;
25667;SDS011;18003;-33.830;151.202;2023-11-21T05:13:30;2.30;;;2.10;;
25667;SDS011;18003;-33.830;151.202;2023-11-21T05:16:03;2.22;;;2.10;;
25667;SDS011;18003;-33.830;151.202;2023-11-21T05:18:34;2.72;;;1.90;;
25667;SDS011;18003;-33.830;151.202;2023-11-21T05:21:04;2.02;;;1.90;;
25667;SDS011;18003;-33.830;151.202;2023-11-21T07:36:46;5.37;;;3.02;;
25667;SDS011;18003;-33.830;151.202;2023-11-21T08:27:34;2.45;;;2.20;;
25667;SDS011;18003;-33.830;151.202;2023-11-21T08:30:27;3.05;;;2.22;;
25667;SDS011;18003;-33.830;151.202;2023-11-21T08:35:45;3.30;;;2.58;;
25667;SDS011;18003;-33.830;151.202;2023-11-21T08:38:15;2.27;;;2.05;;
25667;SDS011;18003;-33.830;151.202;2023-11-21T09:47:55;3.52;;;2.25;;
25667;SDS011;18003;-33.830;151.202;2023-11-21T09:50:26;3.45;;;2.27;;
25667;SDS011;18003;-33.830;151.202;2023-11-21T10:22:27;7.85;;;2.20;;
25667;SDS011;18003;-33.830;151.202;2023-11-21T10:25:16;6.28;;;2.35;;
25667;SDS011;18003;-33.830;151.202;2023-11-21T10:27:47;6.80;;;2.40;;
25667;SDS011;18003;-33.830;151.202;2023-11-21T11:19:59;2.90;;;2.17;;
25667;SDS011;18003;-33.830;151.202;2023-11-21T11:22:36;3.30;;;2.67;;
25667;SDS011;18003;-33.830;151.202;2023-11-21T11:33:31;4.08;;;2.10;;
25667;SDS011;18003;-33.830;151.202;2023-11-21T13:12:01;2.87;;;1.90;;
25667;SDS011;18003;-33.830;151.202;2023-11-21T13:14:31;3.40;;;2.27;;
25667;SDS011;18003;-33.830;151.202;2023-11-21T13:17:15;3.12;;;1.80;;
25667;SDS011;18003;-33.830;151.202;2023-11-21T13:19:38;3.95;;;1.90;;
25667;SDS011;18003;-33.830;151.202;2023-11-21T13:22:21;2.10;;;1.85;;
25667;SDS011;18003;-33.830;151.202;2023-11-21T14:19:23;2.47;;;2.20;;
25667;SDS011;18003;-33.830;151.202;2023-11-21T14:21:57;2.37;;;2.17;;
25667;SDS011;18003;-33.830;151.202;2023-11-21T14:24:27;2.98;;;2.00;;
25667;SDS011;18003;-33.830;151.202;2023-11-21T14:26:57;2.70;;;2.00;;
25667;SDS011;18003;-33.830;151.202;2023-11-21T14:29:27;2.30;;;1.98;;
25667;SDS011;18003;-33.830;151.202;2023-11-21T14:32:14;3.40;;;2.20;;
25667;SDS011;18003;-33.830;151.202;2023-11-21T14:34:42;2.77;;;2.20;;
25667;SDS011;18003;-33.830;151.202;2023-11-21T14:37:18;3.20;;;2.33;;
25667;SDS011;18003;-33.830;151.202;2023-11-21T14:39:47;3.60;;;2.10;;
25667;SDS011;18003;-33.830;151.202;2023-11-21T14:42:17;2.87;;;2.10;;
25667;SDS011;18003;-33.830;151.202;2023-11-21T14:44:48;3.35;;;2.22;;
25667;SDS011;18003;-33.830;151.202;2023-11-21T14:47:18;3.87;;;2.50;;
25667;SDS011;18003;-33.830;151.202;2023-11-21T14:49:49;2.70;;;2.50;;
25667;SDS011;18003;-33.830;151.202;2023-11-21T14:52:26;2.60;;;2.40;;
25667;SDS011;18003;-33.830;151.202;2023-11-21T14:55:03;4.47;;;2.60;;
25667;SDS011;18003;-33.830;151.202;2023-11-21T14:57:47;2.80;;;2.60;;
25667;SDS011;18003;-33.830;151.202;2023-11-21T15:00:17;3.98;;;2.85;;
25667;SDS011;18003;-33.830;151.202;2023-11-21T15:03:04;2.72;;;2.40;;
25667;SDS011;18003;-33.830;151.202;2023-11-21T15:05:35;3.37;;;2.60;;
25667;SDS011;18003;-33.830;151.202;2023-11-21T15:08:06;3.35;;;2.60;;
25667;SDS011;18003;-33.830;151.202;2023-11-21T15:10:43;3.60;;;2.30;;
25667;SDS011;18003;-33.830;151.202;2023-11-21T15:13:15;2.60;;;2.40;;
25667;SDS011;18003;-33.830;151.202;2023-11-21T15:15:45;4.53;;;2.45;;
25667;SDS011;18003;-33.830;151.202;2023-11-21T15:18:16;2.60;;;2.40;;
25667;SDS011;18003;-33.830;151.202;2023-11-21T15:20:46;3.02;;;2.42;;
25667;SDS011;18003;-33.830;151.202;2023-11-21T15:23:16;2.80;;;2.60;;
25667;SDS011;18003;-33.830;151.202;2023-11-21T15:25:46;3.00;;;2.70;;
25667;SDS011;18003;-33.830;151.202;2023-11-21T15:28:16;2.60;;;2.40;;
25667;SDS011;18003;-33.830;151.202;2023-11-21T15:30:46;3.72;;;2.40;;
25667;SDS011;18003;-33.830;151.202;2023-11-21T15:33:17;2.40;;;2.20;;
25667;SDS011;18003;-33.830;151.202;2023-11-21T15:35:50;2.67;;;2.05;;
25667;SDS011;18003;-33.830;151.202;2023-11-21T15:38:21;2.62;;;2.42;;
25667;SDS011;18003;-33.830;151.202;2023-11-21T15:40:54;2.58;;;2.37;;
25667;SDS011;18003;-33.830;151.202;2023-11-21T15:43:24;4.00;;;2.30;;
25667;SDS011;18003;-33.830;151.202;2023-11-21T15:45:58;2.55;;;2.25;;
25667;SDS011;18003;-33.830;151.202;2023-11-21T15:48:31;2.70;;;2.45;;
25667;SDS011;18003;-33.830;151.202;2023-11-21T15:50:59;2.60;;;2.40;;
25667;SDS011;18003;-33.830;151.202;2023-11-21T15:53:29;2.70;;;2.50;;
25667;SDS011;18003;-33.830;151.202;2023-11-21T15:55:59;3.20;;;2.50;;
25667;SDS011;18003;-33.830;151.202;2023-11-21T15:58:30;2.62;;;2.42;;
25667;SDS011;18003;-33.830;151.202;2023-11-21T16:01:00;2.58;;;2.30;;
25667;SDS011;18003;-33.830;151.202;2023-11-21T16:03:30;2.30;;;2.10;;
25667;SDS011;18003;-33.830;151.202;2023-11-21T16:06:05;2.75;;;2.10;;
25667;SDS011;18003;-33.830;151.202;2023-11-21T16:08:39;2.25;;;2.08;;
25667;SDS011;18003;-33.830;151.202;2023-11-21T16:11:10;2.40;;;2.20;;
25667;SDS011;18003;-33.830;151.202;2023-11-21T16:13:41;3.80;;;2.20;;
25667;SDS011;18003;-33.830;151.202;2023-11-21T16:16:12;2.58;;;2.20;;
25667;SDS011;18003;-33.830;151.202;2023-11-21T16:18:48;2.70;;;2.10;;
25667;SDS011;18003;-33.830;151.202;2023-11-21T17:03:22;2.65;;;2.47;;
25667;SDS011;18003;-33.830;151.202;2023-11-21T17:05:53;2.60;;;2.40;;
25667;SDS011;18003;-33.830;151.202;2023-11-21T17:08:23;2.70;;;2.50;;
25667;SDS011;18003;-33.830;151.202;2023-11-21T17:10:52;3.02;;;2.72;;
25667;SDS011;18003;-33.830;151.202;2023-11-21T17:13:22;3.58;;;2.60;;
25667;SDS011;18003;-33.830;151.202;2023-11-21T17:15:52;2.75;;;2.40;;
25667;SDS011;18003;-33.830;151.202;2023-11-21T17:18:22;2.47;;;2.35;;
25667;SDS011;18003;-33.830;151.202;2023-11-21T17:21:00;2.65;;;2.42;;
25667;SDS011;18003;-33.830;151.202;2023-11-21T17:23:31;3.67;;;2.60;;
25667;SDS011;18003;-33.830;151.202;2023-11-21T17:25:57;3.10;;;2.80;;
25667;SDS011;18003;-33.830;151.202;2023-11-21T17:28:26;2.90;;;2.65;;
25667;SDS011;18003;-33.830;151.202;2023-11-21T17:30:56;2.98;;;2.77;;
25667;SDS011;18003;-33.830;151.202;2023-11-21T17:33:26;3.52;;;2.90;;
25667;SDS011;18003;-33.830;151.202;2023-11-21T17:36:02;3.35;;;2.85;;
25667;SDS011;18003;-33.830;151.202;2023-11-21T17:38:38;3.15;;;2.87;;
25667;SDS011;18003;-33.830;151.202;2023-11-21T17:41:10;4.78;;;3.30;;
25667;SDS011;18003;-33.830;151.202;2023-11-21T17:43:47;4.40;;;3.80;;
25667;SDS011;18003;-33.830;151.202;2023-11-21T17:46:20;3.77;;;3.47;;
25667;SDS011;18003;-33.830;151.202;2023-11-21T17:48:53;4.10;;;3.75;;
25667;SDS011;18003;-33.830;151.202;2023-11-21T17:54:07;3.83;;;3.50;;
25667;SDS011;18003;-33.830;151.202;2023-11-21T17:56:36;4.10;;;3.60;;
25667;SDS011;18003;-33.830;151.202;2023-11-21T17:59:06;4.40;;;3.60;;
25667;SDS011;18003;-33.830;151.202;2023-11-21T18:01:51;4.90;;;3.62;;
25667;SDS011;18003;-33.830;151.202;2023-11-21T18:04:28;5.08;;;3.67;;
25667;SDS011;18003;-33.830;151.202;2023-11-21T19:03:47;4.72;;;3.70;;
25667;SDS011;18003;-33.830;151.202;2023-11-21T19:06:19;4.05;;;3.50;;
25667;SDS011;18003;-33.830;151.202;2023-11-21T19:08:48;4.58;;;3.95;;
25667;SDS011;18003;-33.830;151.202;2023-11-21T19:11:18;5.60;;;4.10;;
25667;SDS011;18003;-33.830;151.202;2023-11-21T19:16:37;5.10;;;4.28;;
25667;SDS011;18003;-33.830;151.202;2023-11-21T19:19:06;5.00;;;3.80;;
25667;SDS011;18003;-33.830;151.202;2023-11-21T19:38:38;3.45;;;3.10;;
25667;SDS011;18003;-33.830;151.202;2023-11-21T20:19:56;3.85;;;2.42;;
25667;SDS011;18003;-33.830;151.202;2023-11-21T20:22:26;3.47;;;2.58;;
25667;SDS011;18003;-33.830;151.202;2023-11-21T20:24:57;3.40;;;2.50;;
25667;SDS011;18003;-33.830;151.202;2023-11-21T20:27:27;3.25;;;2.50;;
25667;SDS011;18003;-33.830;151.202;2023-11-21T20:29:58;6.45;;;2.67;;
25667;SDS011;18003;-33.830;151.202;2023-11-21T20:32:28;5.22;;;2.70;;
25667;SDS011;18003;-33.830;151.202;2023-11-21T20:34:58;5.20;;;2.60;;
25667;SDS011;18003;-33.830;151.202;2023-11-21T20:37:28;5.35;;;2.80;;
25667;SDS011;18003;-33.830;151.202;2023-11-21T21:50:59;3.55;;;2.50;;
25667;SDS011;18003;-33.830;151.202;2023-11-21T21:53:29;5.30;;;2.50;;
25667;SDS011;18003;-33.830;151.202;2023-11-21T21:55:58;6.17;;;2.58;;
25667;SDS011;18003;-33.830;151.202;2023-11-21T21:58:28;5.10;;;2.40;;
25667;SDS011;18003;-33.830;151.202;2023-11-21T22:00:58;2.60;;;2.40;;
25667;SDS011;18003;-33.830;151.202;2023-11-21T22:03:29;5.12;;;2.98;;
25667;SDS011;18003;-33.830;151.202;2023-11-21T22:05:59;3.47;;;2.05;;
25667;SDS011;18003;-33.830;151.202;2023-11-21T22:08:28;4.87;;;2.50;;
25667;SDS011;18003;-33.830;151.202;2023-11-21T22:10:59;4.75;;;3.02;;
25667;SDS011;18003;-33.830;151.202;2023-11-21T22:13:29;3.62;;;2.55;;
25667;SDS011;18003;-33.830;151.202;2023-11-21T22:15:59;5.30;;;2.70;;
25667;SDS011;18003;-33.830;151.202;2023-11-21T22:18:30;4.17;;;2.90;;
25667;SDS011;18003;-33.830;151.202;2023-11-21T22:21:00;8.25;;;3.10;;
25667;SDS011;18003;-33.830;151.202;2023-11-21T22:23:29;5.20;;;2.90;;
25667;SDS011;18003;-33.830;151.202;2023-11-21T22:25:59;4.53;;;2.77;;
25667;SDS011;18003;-33.830;151.202;2023-11-21T22:28:29;3.90;;;3.30;;
25667;SDS011;18003;-33.830;151.202;2023-11-21T22:30:59;5.12;;;3.33;;
25667;SDS011;18003;-33.830;151.202;2023-11-21T22:33:28;4.87;;;3.20;;
25667;SDS011;18003;-33.830;151.202;2023-11-21T22:35:58;7.28;;;3.20;;
25667;SDS011;18003;-33.830;151.202;2023-11-21T22:38:28;6.10;;;3.47;;
25667;SDS011;18003;-33.830;151.202;2023-11-21T23:22:41;4.60;;;2.62;;
25667;SDS011;18003;-33.830;151.202;2023-11-21T23:30:52;3.33;;;3.02;;
25667;SDS011;18003;-33.830;151.202;2023-11-21T23:33:22;5.40;;;3.10;;
